createdAt,value
2022-10-16T00:01:49.396Z,99502.81
2022-10-16T00:04:18.371Z,99502.22
2022-10-16T00:06:48.607Z,99510.47
2022-10-16T00:09:17.963Z,99511.91
2022-10-16T00:11:47.727Z,99520.97
2022-10-16T00:14:19.007Z,99527.44
2022-10-16T00:16:47.626Z,99528.25
2022-10-16T00:19:16.591Z,99530.16
2022-10-16T00:21:45.882Z,99547.00
2022-10-16T00:24:16.996Z,99540.78
2022-10-16T00:26:46.707Z,99531.94
2022-10-16T00:29:16.454Z,99552.25
2022-10-16T00:31:44.904Z,99545.34
2022-10-16T00:34:13.604Z,99557.59
2022-10-16T00:36:43.392Z,99566.31
2022-10-16T00:39:12.018Z,99552.94
2022-10-16T00:41:42.032Z,99556.31
2022-10-16T00:44:45.782Z,99566.81
2022-10-16T00:47:21.605Z,99569.06
2022-10-16T00:49:54.247Z,99565.09
2022-10-16T00:52:24.961Z,99575.75
2022-10-16T00:54:56.583Z,99562.03
2022-10-16T00:57:29.505Z,99563.81
2022-10-16T01:00:01.716Z,99579.44
2022-10-16T01:02:30.434Z,99566.31
2022-10-16T01:05:00.016Z,99573.22
2022-10-16T01:07:43.513Z,99599.84
2022-10-16T01:10:22.653Z,99582.66
2022-10-16T01:12:57.514Z,99571.56
2022-10-16T01:15:32.125Z,99587.09
2022-10-16T01:18:08.290Z,99583.78
2022-10-16T01:20:44.396Z,99585.31
2022-10-16T01:23:30.282Z,99575.06
2022-10-16T01:26:27.355Z,99578.63
2022-10-16T01:29:00.512Z,99587.44
2022-10-16T01:31:34.036Z,99583.03
2022-10-16T01:34:07.709Z,99584.09
2022-10-16T01:36:41.743Z,99595.81
2022-10-16T01:39:14.302Z,99588.97
2022-10-16T01:41:52.291Z,99584.56
2022-10-16T01:44:28.457Z,99599.16
2022-10-16T01:46:58.903Z,99614.31
2022-10-16T01:49:32.264Z,99637.97
2022-10-16T01:52:05.065Z,99625.91
2022-10-16T01:54:37.993Z,99625.34
2022-10-16T01:57:17.023Z,99636.53
2022-10-16T01:59:53.330Z,99643.00
2022-10-16T02:02:25.836Z,99635.72
2022-10-16T02:05:00.742Z,99656.03
2022-10-16T02:07:29.536Z,99650.03
2022-10-16T02:10:00.130Z,99645.88
2022-10-16T02:12:32.658Z,99650.16
2022-10-16T02:15:02.504Z,99652.53
2022-10-16T02:17:32.329Z,99662.56
2022-10-16T02:20:01.728Z,99679.66
2022-10-16T02:22:32.873Z,99666.28
2022-10-16T02:25:05.084Z,99671.78
2022-10-16T02:27:41.427Z,99686.22
2022-10-16T02:30:19.066Z,99684.28
2022-10-16T02:32:51.332Z,99689.06
2022-10-16T02:35:24.731Z,99688.84
2022-10-16T02:37:55.391Z,99700.66
2022-10-16T02:40:25.477Z,99709.47
2022-10-16T02:42:57.373Z,99704.47
2022-10-16T02:45:27.172Z,99709.25
2022-10-16T02:47:56.710Z,99715.22
2022-10-16T02:50:26.272Z,99723.81
2022-10-16T02:52:54.704Z,99727.13
2022-10-16T02:55:25.190Z,99720.22
2022-10-16T02:57:55.206Z,99720.22
2022-10-16T03:00:23.685Z,99728.22
2022-10-16T03:02:55.149Z,99734.44
2022-10-16T03:05:23.662Z,99745.88
2022-10-16T03:07:54.944Z,99733.72
2022-10-16T03:10:23.610Z,99741.34
2022-10-16T03:12:59.232Z,99751.72
2022-10-16T03:15:30.825Z,99748.38
2022-10-16T03:18:01.790Z,99743.97
2022-10-16T03:20:30.557Z,99745.66
2022-10-16T03:23:01.135Z,99759.22
2022-10-16T03:25:32.045Z,99751.59
2022-10-16T03:28:00.950Z,99772.25
2022-10-16T03:30:30.537Z,99764.47
2022-10-16T03:33:00.936Z,99767.22
2022-10-16T03:35:31.708Z,99773.03
2022-10-16T03:38:00.490Z,99788.91
2022-10-16T03:41:06.165Z,99776.41
2022-10-16T03:43:41.470Z,99782.38
2022-10-16T03:46:11.648Z,99792.25
2022-10-16T03:48:41.898Z,99797.16
2022-10-16T03:51:36.909Z,99801.97
2022-10-16T03:54:11.601Z,99804.13
2022-10-16T03:56:44.179Z,99817.13
2022-10-16T03:59:12.622Z,99821.66
2022-10-16T04:02:03.334Z,99816.06
2022-10-16T04:04:40.620Z,99825.94
2022-10-16T04:07:09.420Z,99838.47
2022-10-16T04:09:45.423Z,99854.00
2022-10-16T04:12:17.332Z,99878.25
2022-10-16T04:14:51.274Z,99861.03
2022-10-16T04:17:34.389Z,99866.41
2022-10-16T04:20:05.088Z,99869.97
2022-10-16T04:22:46.558Z,99880.03
2022-10-16T04:25:15.581Z,99891.50
2022-10-16T04:27:46.080Z,99887.50
2022-10-16T04:30:31.084Z,99908.06
2022-10-16T04:33:02.758Z,99909.59
2022-10-16T04:35:38.988Z,99923.06
2022-10-16T04:38:07.930Z,99925.91
2022-10-16T04:40:37.562Z,99933.44
2022-10-16T04:46:00.400Z,99957.69
2022-10-16T04:48:29.603Z,99950.97
2022-10-16T04:50:59.616Z,99962.19
2022-10-16T04:53:28.616Z,99959.56
2022-10-16T04:55:57.344Z,99959.19
2022-10-16T04:58:26.712Z,99974.59
2022-10-16T05:01:00.239Z,99968.38
2022-10-16T05:06:08.775Z,99975.22
2022-10-16T05:08:37.746Z,99983.09
2022-10-16T05:11:07.295Z,99966.38
2022-10-16T05:13:36.054Z,99965.88
2022-10-16T05:16:04.732Z,99952.16
2022-10-16T05:18:34.726Z,99951.81
2022-10-16T05:21:03.385Z,99952.97
2022-10-16T05:23:33.569Z,99968.38
2022-10-16T05:26:02.556Z,99950.97
2022-10-16T05:28:35.175Z,99960.03
2022-10-16T05:31:08.224Z,99966.72
2022-10-16T05:33:36.898Z,99974.72
2022-10-16T05:36:09.109Z,99991.31
2022-10-16T05:38:41.370Z,99980.41
2022-10-16T05:41:10.715Z,99981.13
2022-10-16T05:43:44.323Z,99999.06
2022-10-16T05:46:13.037Z,99985.94
2022-10-16T05:48:43.204Z,99987.72
2022-10-16T05:51:16.513Z,99995.06
2022-10-16T05:53:46.584Z,99990.97
2022-10-16T05:56:15.297Z,100001.34
2022-10-16T05:58:45.773Z,100005.09
2022-10-16T06:01:17.745Z,100017.50
2022-10-16T06:03:46.709Z,100002.94
2022-10-16T06:06:18.763Z,100009.72
2022-10-16T06:08:51.137Z,100024.97
2022-10-16T06:11:22.423Z,100034.75
2022-10-16T06:13:52.739Z,100031.50
2022-10-16T06:16:21.569Z,100028.69
2022-10-16T06:18:53.588Z,100036.66
2022-10-16T06:21:27.103Z,100029.94
2022-10-16T06:23:59.105Z,100047.38
2022-10-16T06:26:30.470Z,100029.34
2022-10-16T06:29:00.724Z,100045.28
2022-10-16T06:31:32.288Z,100042.56
2022-10-16T06:34:06.186Z,100052.66
2022-10-16T06:36:35.317Z,100053.06
2022-10-16T06:39:05.971Z,100054.25
2022-10-16T06:41:35.278Z,100071.03
2022-10-16T06:44:03.794Z,100068.03
2022-10-16T06:46:34.809Z,100084.50
2022-10-16T06:49:03.634Z,100095.09
2022-10-16T06:51:39.244Z,100093.63
2022-10-16T06:54:12.780Z,100106.22
2022-10-16T06:56:42.539Z,100100.88
2022-10-16T06:59:19.564Z,100107.91
2022-10-16T07:01:51.622Z,100115.25
2022-10-16T07:04:22.171Z,100131.38
2022-10-16T07:06:53.036Z,100152.06
2022-10-16T07:09:23.333Z,100150.38
2022-10-16T07:11:53.478Z,100151.34
2022-10-16T07:14:29.264Z,100156.69
2022-10-16T07:17:06.474Z,100162.47
2022-10-16T07:19:38.169Z,100164.78
2022-10-16T07:22:07.902Z,100179.56
2022-10-16T07:24:39.577Z,100186.28
2022-10-16T07:27:08.757Z,100196.59
2022-10-16T07:29:38.849Z,100205.81
2022-10-16T07:32:11.143Z,100217.38
2022-10-16T07:34:40.665Z,100222.19
2022-10-16T07:37:09.105Z,100224.50
2022-10-16T07:39:45.202Z,100220.97
2022-10-16T07:42:15.018Z,100225.25
2022-10-16T07:44:44.712Z,100230.28
2022-10-16T07:47:14.755Z,100243.94
2022-10-16T07:49:44.659Z,100242.88
2022-10-16T07:52:14.450Z,100253.28
2022-10-16T07:54:46.060Z,100275.03
2022-10-16T07:57:20.032Z,100274.19
2022-10-16T07:59:53.967Z,100288.69
2022-10-16T08:02:23.779Z,100297.28
2022-10-16T08:04:53.089Z,100294.91
2022-10-16T08:07:21.724Z,100301.91
2022-10-16T08:09:54.109Z,100300.16
2022-10-16T08:12:22.929Z,100308.63
2022-10-16T08:14:53.853Z,100302.97
2022-10-16T08:17:25.218Z,100301.72
2022-10-16T08:19:54.063Z,100299.59
2022-10-16T08:22:32.297Z,100299.16
2022-10-16T08:25:02.404Z,100298.75
2022-10-16T08:27:34.181Z,100296.72
2022-10-16T08:30:05.545Z,100283.25
2022-10-16T08:32:34.640Z,100291.56
2022-10-16T08:35:05.608Z,100297.34
2022-10-16T08:37:34.745Z,100296.91
2022-10-16T08:40:07.949Z,100294.69
2022-10-16T08:42:54.099Z,100288.78
2022-10-16T08:45:32.356Z,100290.63
2022-10-16T08:48:17.796Z,100290.69
2022-10-16T08:50:48.513Z,100299.94
2022-10-16T08:53:21.788Z,100302.00
2022-10-16T08:55:55.824Z,100299.41
2022-10-16T08:58:30.895Z,100298.06
2022-10-16T09:01:03.022Z,100296.75
2022-10-16T09:03:51.932Z,100303.16
2022-10-16T09:06:38.845Z,100291.44
2022-10-16T09:09:33.180Z,100292.03
2022-10-16T09:12:12.863Z,100300.41
2022-10-16T09:14:55.141Z,100304.50
2022-10-16T09:17:39.585Z,100303.56
2022-10-16T09:20:22.107Z,100311.97
2022-10-16T09:23:18.969Z,100316.88
2022-10-16T09:25:50.989Z,100315.69
2022-10-16T09:28:22.644Z,100325.28
2022-10-16T09:30:51.991Z,100329.22
2022-10-16T09:33:27.242Z,100341.34
2022-10-16T09:35:59.974Z,100350.91
2022-10-16T09:38:32.542Z,100349.72
2022-10-16T09:41:03.609Z,100355.59
2022-10-16T09:43:44.699Z,100346.50
2022-10-16T09:46:27.784Z,100337.31
2022-10-16T09:48:59.429Z,100333.00
2022-10-16T09:51:30.449Z,100339.25
2022-10-16T09:54:02.090Z,100341.16
2022-10-16T09:56:34.685Z,100330.97
2022-10-16T09:59:13.239Z,100333.03
2022-10-16T10:01:45.527Z,100342.16
2022-10-16T10:04:15.459Z,100345.72
2022-10-16T10:06:47.265Z,100349.69
2022-10-16T10:09:24.867Z,100349.06
2022-10-16T10:11:56.379Z,100348.44
2022-10-16T10:14:34.592Z,100336.44
2022-10-16T10:17:21.890Z,100328.13
2022-10-16T10:19:56.269Z,100326.72
2022-10-16T10:22:34.769Z,100328.50
2022-10-16T10:25:23.303Z,100307.75
2022-10-16T10:28:17.877Z,100300.22
2022-10-16T10:30:58.241Z,100309.78
2022-10-16T10:33:39.847Z,100318.44
2022-10-16T10:36:19.282Z,100307.88
2022-10-16T10:38:54.229Z,100290.63
2022-10-16T10:41:57.307Z,100297.06
2022-10-16T10:44:40.588Z,100314.22
2022-10-16T10:47:25.563Z,100319.75
2022-10-16T10:50:05.785Z,100323.22
2022-10-16T10:52:53.567Z,100327.19
2022-10-16T10:55:31.645Z,100332.81
2022-10-16T10:58:15.622Z,100319.25
2022-10-16T11:00:54.654Z,100323.78
2022-10-16T11:03:45.631Z,100338.66
2022-10-16T11:06:19.470Z,100341.28
2022-10-16T11:08:55.381Z,100340.78
2022-10-16T11:11:32.394Z,100337.16
2022-10-16T11:14:06.505Z,100330.22
2022-10-16T11:16:41.511Z,100343.31
2022-10-16T11:19:17.392Z,100339.63
2022-10-16T11:21:52.119Z,100332.31
2022-10-16T11:24:27.662Z,100340.00
2022-10-16T11:26:57.987Z,100349.72
2022-10-16T11:29:31.902Z,100347.19
2022-10-16T11:32:10.271Z,100347.19
2022-10-16T11:34:46.835Z,100340.00
2022-10-16T11:37:19.759Z,100331.34
2022-10-16T11:39:49.107Z,100326.78
2022-10-16T11:42:22.650Z,100328.47
2022-10-16T11:44:57.606Z,100334.44
2022-10-16T11:50:32.271Z,100320.41
2022-10-16T11:53:06.873Z,100319.31
2022-10-16T11:55:41.879Z,100311.72
2022-10-16T11:58:24.127Z,100305.97
2022-10-16T12:01:01.555Z,100309.34
2022-10-16T12:03:34.480Z,100307.78
2022-10-16T12:06:24.800Z,100308.50
2022-10-16T12:08:54.495Z,100300.31
2022-10-16T12:11:33.429Z,100276.78
2022-10-16T12:14:24.897Z,100275.13
2022-10-16T12:16:56.615Z,100274.88
2022-10-16T12:19:27.935Z,100276.09
2022-10-16T12:22:01.559Z,100274.50
2022-10-16T12:24:38.615Z,100274.63
2022-10-16T12:27:09.910Z,100270.88
2022-10-16T12:29:41.158Z,100268.25
2022-10-16T12:32:45.653Z,100264.47
2022-10-16T12:35:22.398Z,100265.16
2022-10-16T12:37:55.757Z,100277.38
2022-10-16T12:40:32.672Z,100283.84
2022-10-16T12:43:14.129Z,100282.66
2022-10-16T12:45:44.283Z,100280.31
2022-10-16T12:48:32.566Z,100284.16
2022-10-16T12:51:25.718Z,100287.03
2022-10-16T12:54:07.634Z,100278.66
2022-10-16T12:56:47.967Z,100271.22
2022-10-16T12:59:31.522Z,100264.56
2022-10-16T13:02:34.819Z,100266.47
2022-10-16T13:05:30.114Z,100248.81
2022-10-16T13:08:15.527Z,100244.66
2022-10-16T13:11:01.612Z,100245.59
2022-10-16T13:13:54.512Z,100236.59
2022-10-16T13:16:33.726Z,100228.19
2022-10-16T13:19:20.152Z,100232.88
2022-10-16T13:21:56.760Z,100231.44
2022-10-16T13:24:44.511Z,100223.69
2022-10-16T13:27:28.853Z,100211.31
2022-10-16T13:30:15.720Z,100198.81
2022-10-16T13:32:48.666Z,100186.59
2022-10-16T13:35:27.354Z,100197.16
2022-10-16T13:38:22.961Z,100193.81
2022-10-16T13:41:17.752Z,100190.59
2022-10-16T13:43:58.604Z,100202.22
2022-10-16T13:46:28.089Z,100192.53
2022-10-16T13:49:04.283Z,100199.72
2022-10-16T13:51:35.144Z,100205.22
2022-10-16T13:54:06.892Z,100199.38
2022-10-16T13:56:36.320Z,100188.09
2022-10-16T13:59:24.638Z,100165.56
2022-10-16T14:02:11.006Z,100157.56
2022-10-16T14:04:48.583Z,100150.47
2022-10-16T14:07:28.236Z,100155.47
2022-10-16T14:10:03.591Z,100152.28
2022-10-16T14:12:38.893Z,100153.81
2022-10-16T14:15:21.157Z,100169.63
2022-10-16T14:17:53.615Z,100170.38
2022-10-16T14:20:27.631Z,100158.59
2022-10-16T14:23:03.495Z,100156.78
2022-10-16T14:26:01.495Z,100145.28
2022-10-16T14:28:46.881Z,100142.50
2022-10-16T14:31:29.120Z,100132.66
2022-10-16T14:33:59.748Z,100127.25
2022-10-16T14:36:36.572Z,100120.63
2022-10-16T14:39:08.067Z,100111.84
2022-10-16T14:41:47.310Z,100114.25
2022-10-16T14:44:20.633Z,100109.94
2022-10-16T14:46:52.661Z,100113.41
2022-10-16T14:49:39.330Z,100116.88
2022-10-16T14:52:18.453Z,100111.47
2022-10-16T14:54:52.383Z,100100.66
2022-10-16T14:57:25.610Z,100103.78
2022-10-16T15:00:24.313Z,100097.00
2022-10-16T15:03:25.387Z,100090.88
2022-10-16T15:06:17.688Z,100073.97
2022-10-16T15:08:47.125Z,100071.06
2022-10-16T15:11:25.823Z,100068.47
2022-10-16T15:13:54.349Z,100053.06
2022-10-16T15:16:49.446Z,100044.00
2022-10-16T15:19:28.870Z,100041.53
2022-10-16T15:22:04.762Z,100034.34
2022-10-16T15:24:33.420Z,100020.84
2022-10-16T15:27:01.803Z,100018.91
2022-10-16T15:29:30.606Z,100008.06
2022-10-16T15:31:59.087Z,99993.63
2022-10-16T15:34:27.818Z,99976.66
2022-10-16T15:36:57.984Z,99982.53
2022-10-16T15:39:27.887Z,99985.03
2022-10-16T15:41:56.824Z,99975.53
2022-10-16T15:44:27.507Z,99977.78
2022-10-16T15:47:02.221Z,99972.78
2022-10-16T15:49:38.770Z,99959.03
2022-10-16T15:52:07.358Z,99949.44
2022-10-16T15:54:37.324Z,99959.44
2022-10-16T15:57:05.988Z,99941.66
2022-10-16T15:59:34.773Z,99943.56
2022-10-16T16:02:03.985Z,99951.34
2022-10-16T16:04:43.490Z,99944.00
2022-10-16T16:07:13.329Z,99944.97
2022-10-16T16:09:45.299Z,99938.97
2022-10-16T16:12:14.408Z,99940.63
2022-10-16T16:14:47.298Z,99945.06
2022-10-16T16:17:21.485Z,99926.97
2022-10-16T16:19:50.339Z,99933.22
2022-10-16T16:22:19.077Z,99928.50
2022-10-16T16:24:49.008Z,99927.13
2022-10-16T16:27:17.692Z,99917.13
2022-10-16T16:29:46.483Z,99919.75
2022-10-16T16:32:15.381Z,99916.00
2022-10-16T16:34:43.699Z,99908.66
2022-10-16T16:37:12.168Z,99898.91
2022-10-16T16:39:40.657Z,99897.00
2022-10-16T16:42:11.618Z,99879.88
2022-10-16T16:44:40.127Z,99887.78
2022-10-16T16:47:09.421Z,99867.38
2022-10-16T16:49:38.081Z,99861.69
2022-10-16T16:52:06.805Z,99861.69
2022-10-16T16:54:35.573Z,99847.34
2022-10-16T16:57:04.402Z,99834.59
2022-10-16T16:59:34.993Z,99838.31
2022-10-16T17:02:04.054Z,99831.63
2022-10-16T17:04:32.624Z,99815.50
2022-10-16T17:07:01.098Z,99808.69
2022-10-16T17:09:30.110Z,99809.22
2022-10-16T17:11:58.678Z,99813.56
2022-10-16T17:14:27.679Z,99805.31
2022-10-16T17:16:57.901Z,99813.41
2022-10-16T17:19:26.430Z,99800.75
2022-10-16T17:21:55.389Z,99794.53
2022-10-16T17:24:25.196Z,99787.53
2022-10-16T17:26:53.860Z,99793.94
2022-10-16T17:29:22.414Z,99780.97
2022-10-16T17:31:51.610Z,99781.84
2022-10-16T17:34:21.472Z,99772.66
2022-10-16T17:36:50.338Z,99765.84
2022-10-16T17:39:19.801Z,99754.03
2022-10-16T17:41:48.720Z,99754.16
2022-10-16T17:44:21.151Z,99745.69
2022-10-16T17:46:51.864Z,99725.25
2022-10-16T17:49:26.147Z,99731.06
2022-10-16T17:51:55.922Z,99715.78
2022-10-16T17:54:24.326Z,99716.59
2022-10-16T17:56:52.890Z,99704.50
2022-10-16T17:59:23.378Z,99697.94
2022-10-16T18:01:52.420Z,99697.09
2022-10-16T18:04:22.286Z,99671.47
2022-10-16T18:06:51.005Z,99649.94
2022-10-16T18:09:22.084Z,99641.47
2022-10-16T18:11:55.639Z,99659.56
2022-10-16T18:14:24.024Z,99640.94
2022-10-16T18:16:53.327Z,99644.28
2022-10-16T18:19:23.823Z,99644.00
2022-10-16T18:21:52.883Z,99644.81
2022-10-16T18:24:21.964Z,99648.28
2022-10-16T18:26:52.518Z,99662.06
2022-10-16T18:29:21.154Z,99644.00
2022-10-16T18:31:50.108Z,99657.59
2022-10-16T18:34:19.773Z,99649.00
2022-10-16T18:36:52.703Z,99648.47
2022-10-16T18:39:25.338Z,99642.63
2022-10-16T18:41:59.920Z,99652.03
2022-10-16T18:44:31.376Z,99634.91
2022-10-16T18:47:00.247Z,99631.53
2022-10-16T18:49:29.994Z,99638.28
2022-10-16T18:52:02.246Z,99653.75
2022-10-16T18:54:32.190Z,99657.47
2022-10-16T18:57:01.109Z,99650.00
2022-10-16T18:59:29.706Z,99641.34
2022-10-16T19:02:04.654Z,99636.34
2022-10-16T19:04:33.249Z,99641.00
2022-10-16T19:07:03.481Z,99626.91
2022-10-16T19:09:32.106Z,99618.06
2022-10-16T19:12:00.889Z,99623.28
2022-10-16T19:14:30.333Z,99616.34
2022-10-16T19:16:59.560Z,99602.94
2022-10-16T19:19:28.203Z,99599.56
2022-10-16T19:22:11.886Z,99586.03
2022-10-16T19:24:43.090Z,99587.09
2022-10-16T19:27:12.859Z,99583.38
2022-10-16T19:29:41.264Z,99561.84
2022-10-16T19:32:09.984Z,99560.88
2022-10-16T19:34:39.145Z,99538.25
2022-10-16T19:37:10.806Z,99546.91
2022-10-16T19:39:39.192Z,99533.41
2022-10-16T19:42:09.362Z,99524.81
2022-10-16T19:44:37.960Z,99517.72
2022-10-16T19:47:06.823Z,99528.75
2022-10-16T19:49:35.368Z,99526.63
2022-10-16T19:52:03.923Z,99522.19
2022-10-16T19:54:32.837Z,99527.94
2022-10-16T19:57:02.004Z,99530.25
2022-10-16T19:59:32.184Z,99528.88
2022-10-16T20:02:01.235Z,99518.16
2022-10-16T20:04:29.578Z,99520.81
2022-10-16T20:06:58.435Z,99507.88
2022-10-16T20:09:26.845Z,99495.72
2022-10-16T20:11:55.218Z,99490.56
2022-10-16T20:14:23.688Z,99503.94
2022-10-16T20:16:54.323Z,99502.50
2022-10-16T20:19:23.652Z,99502.13
2022-10-16T20:21:52.011Z,99490.88
2022-10-16T20:24:20.758Z,99482.44
2022-10-16T20:26:49.398Z,99471.22
2022-10-16T20:29:18.281Z,99476.31
2022-10-16T20:31:46.782Z,99465.56
2022-10-16T20:34:16.699Z,99459.28
2022-10-16T20:36:46.939Z,99466.75
2022-10-16T20:39:15.768Z,99463.34
2022-10-16T20:41:44.606Z,99464.16
2022-10-16T20:44:13.462Z,99468.47
2022-10-16T20:46:42.990Z,99495.09
2022-10-16T20:49:28.288Z,99496.91
2022-10-16T20:52:01.834Z,99491.91
2022-10-16T20:54:30.399Z,99490.78
2022-10-16T20:56:59.068Z,99522.53
2022-10-16T20:59:27.628Z,99477.88
2022-10-16T21:01:56.153Z,99498.28
2022-10-16T21:04:24.663Z,99475.75
2022-10-16T21:06:54.171Z,99488.69
2022-10-16T21:09:25.407Z,99493.91
2022-10-16T21:11:54.560Z,99478.59
2022-10-16T21:14:23.498Z,99491.44
2022-10-16T21:16:52.130Z,99499.69
2022-10-16T21:19:20.640Z,99495.06
2022-10-16T21:21:50.341Z,99491.09
2022-10-16T21:24:19.489Z,99505.81
2022-10-16T21:26:50.110Z,99496.88
2022-10-16T21:29:21.619Z,99486.47
2022-10-16T21:31:50.639Z,99482.72
2022-10-16T21:34:19.543Z,99473.16
2022-10-16T21:36:49.391Z,99479.50
2022-10-16T21:39:19.748Z,99476.94
2022-10-16T21:41:51.111Z,99479.78
2022-10-16T21:44:21.085Z,99485.66
2022-10-16T21:46:51.930Z,99486.81
2022-10-16T21:49:21.117Z,99490.13
2022-10-16T21:51:51.731Z,99498.09
2022-10-16T21:54:22.279Z,99501.75
2022-10-16T21:56:53.854Z,99503.59
2022-10-16T21:59:22.462Z,99505.13
2022-10-16T22:01:54.091Z,99499.53
2022-10-16T22:04:23.342Z,99499.69
2022-10-16T22:06:51.983Z,99508.53
2022-10-16T22:09:20.544Z,99505.63
2022-10-16T22:11:51.272Z,99483.44
2022-10-16T22:14:23.596Z,99481.72
2022-10-16T22:16:52.942Z,99487.59
2022-10-16T22:19:23.629Z,99501.13
2022-10-16T22:21:57.562Z,99492.28
2022-10-16T22:24:26.415Z,99483.63
2022-10-16T22:26:55.350Z,99475.69
2022-10-16T22:29:26.720Z,99468.03
2022-10-16T22:31:56.292Z,99463.41
2022-10-16T22:34:24.575Z,99456.53
2022-10-16T22:36:53.380Z,99437.63
2022-10-16T22:39:21.764Z,99418.78
2022-10-16T22:41:50.296Z,99407.53
2022-10-16T22:44:18.829Z,99416.06
2022-10-16T22:46:49.271Z,99413.06
2022-10-16T22:49:20.669Z,99411.66
2022-10-16T22:54:23.043Z,99394.16
2022-10-16T22:56:51.615Z,99383.97
2022-10-16T22:59:20.069Z,99383.25
2022-10-16T23:01:50.502Z,99395.59
2022-10-16T23:04:19.038Z,99395.81
2022-10-16T23:06:47.649Z,99397.16
2022-10-16T23:09:16.128Z,99372.47
2022-10-16T23:11:44.481Z,99401.66
2022-10-16T23:14:13.029Z,99397.03
2022-10-16T23:16:41.507Z,99399.31
2022-10-16T23:19:12.436Z,99412.63
2022-10-16T23:21:41.191Z,99418.84
2022-10-16T23:24:09.829Z,99404.97
2022-10-16T23:26:38.456Z,99389.69
2022-10-16T23:29:08.170Z,99393.97
2022-10-16T23:31:37.292Z,99387.38
2022-10-16T23:34:06.076Z,99381.03
2022-10-16T23:36:36.494Z,99372.47
2022-10-16T23:39:05.270Z,99393.03
2022-10-16T23:41:33.870Z,99357.81
2022-10-16T23:44:02.510Z,99360.59
2022-10-16T23:46:31.364Z,99368.53
2022-10-16T23:49:00.383Z,99358.47
2022-10-16T23:51:30.580Z,99357.28
2022-10-16T23:54:00.633Z,99351.41
2022-10-16T23:56:29.236Z,99340.59
2022-10-16T23:58:58.249Z,99337.81
